EGTE/EXT METAR and TAF weather

Enter ICAO airport designator
Station Type Date Time Source
EGTE METAR 2018/04/21 17:50 UTC NOAA

EGTE 211750Z 11017KT 9999 8000NE VCTS VCSH FEW040CB 14/11 Q1014


Station Type Date Time Source
EGTE Decoded METAR 2018/04/21 17:50 UTC NOAA

Exeter Airport, United Kingdom (EGTE) 50-44N 003-25W
Apr 21, 2018 - 01:50 PM EDT / 2018.04.21 1750 UTC
Wind: from the ESE (110 degrees) at 20 MPH (17 KT):0
Visibility: greater than 7 mile(s):0
Sky conditions: mostly clear
Weather: thunder in the vicinity; showers in the vicinity; Cumulonimbus clouds observed
Temperature: 57 F (14 C)
Dew Point: 51 F (11 C)
Relative Humidity: 82%
Pressure (altimeter): 29.94 in. Hg (1014 hPa)
ob: EGTE 211750Z 11017KT 9999 8000NE VCTS VCSH FEW040CB 14/11 Q1014
cycle: 18

Station Type Date Time Source
EGTE TAF 2012/04/19 12:15 UTC NOAA

TAF TAF EGTE 191401Z 1912/1924 31016KT 9999 SCT030 SCT035 PROB40
TEMPO 1915/1918 7000 SHRA BKN014


Example: see airport list